createdAt,value
2022-10-19T00:02:16.090Z,14.95
2022-10-19T00:04:42.583Z,10.95
2022-10-19T00:07:08.915Z,11.77
2022-10-19T00:09:35.274Z,16.00
2022-10-19T00:12:01.585Z,12.07
2022-10-19T00:14:27.879Z,14.68
2022-10-19T00:16:54.219Z,12.88
2022-10-19T00:19:25.113Z,11.95
2022-10-19T00:24:22.893Z,13.02
2022-10-19T00:26:49.268Z,14.02
2022-10-19T00:29:15.851Z,10.63
2022-10-19T00:31:42.492Z,9.05
2022-10-19T00:34:09.041Z,13.35
2022-10-19T00:36:38.641Z,13.32
2022-10-19T00:39:07.874Z,11.70
2022-10-19T00:41:37.217Z,14.52
2022-10-19T00:44:07.166Z,15.13
2022-10-19T00:46:42.608Z,13.32
2022-10-19T00:49:12.958Z,13.35
2022-10-19T00:51:46.819Z,10.05
2022-10-19T00:54:15.490Z,12.35
2022-10-19T00:56:43.056Z,11.88
2022-10-19T00:59:10.268Z,12.45
2022-10-19T01:01:36.605Z,11.10
2022-10-19T01:04:04.506Z,14.65
2022-10-19T01:06:31.266Z,13.20
2022-10-19T01:08:57.601Z,12.40
2022-10-19T01:11:39.575Z,14.55
2022-10-19T01:14:36.673Z,11.73
2022-10-19T01:17:17.071Z,13.57
2022-10-19T01:20:08.367Z,14.68
2022-10-19T01:23:13.546Z,11.15
2022-10-19T01:26:12.568Z,10.68
2022-10-19T01:29:00.462Z,8.73
2022-10-19T01:32:04.050Z,9.57
2022-10-19T01:34:30.343Z,13.05
2022-10-19T01:36:59.348Z,19.17
2022-10-19T01:39:51.850Z,15.32
2022-10-19T01:42:28.678Z,12.98
2022-10-19T01:45:05.073Z,14.82
2022-10-19T01:47:35.319Z,15.65
2022-10-19T01:50:10.206Z,17.67
2022-10-19T01:52:37.900Z,17.27
2022-10-19T01:55:04.858Z,18.85
2022-10-19T01:57:39.586Z,17.08
2022-10-19T02:00:08.119Z,13.95
2022-10-19T02:02:38.263Z,13.38
2022-10-19T02:05:06.139Z,14.27
2022-10-19T02:07:33.830Z,11.73
2022-10-19T02:10:00.788Z,13.02
2022-10-19T02:12:28.843Z,14.20
2022-10-19T02:14:59.055Z,22.05
2022-10-19T02:17:31.439Z,21.50
2022-10-19T02:19:59.313Z,17.63
2022-10-19T02:22:25.747Z,15.43
2022-10-19T02:24:52.097Z,14.88
2022-10-19T02:27:18.620Z,15.82
2022-10-19T02:29:45.140Z,19.13
2022-10-19T02:32:11.906Z,17.33
2022-10-19T02:34:39.569Z,15.18
2022-10-19T02:37:06.469Z,15.43
2022-10-19T02:39:33.126Z,14.18
2022-10-19T02:42:11.420Z,17.13
2022-10-19T02:44:45.434Z,16.30
2022-10-19T02:47:16.974Z,19.70
2022-10-19T02:49:44.165Z,18.67
2022-10-19T02:52:12.242Z,19.27
2022-10-19T02:54:40.847Z,21.73
2022-10-19T02:57:19.211Z,25.45
2022-10-19T02:59:46.294Z,25.65
2022-10-19T03:02:14.041Z,24.00
2022-10-19T03:04:40.426Z,32.95
2022-10-19T03:07:07.295Z,20.92
2022-10-19T03:09:33.627Z,24.35
2022-10-19T03:11:59.995Z,29.63
2022-10-19T03:14:26.314Z,26.50
2022-10-19T03:16:52.691Z,23.08
2022-10-19T03:19:19.159Z,23.48
2022-10-19T03:21:45.537Z,24.77
2022-10-19T03:24:12.219Z,21.85
2022-10-19T03:26:38.575Z,21.15
2022-10-19T03:29:04.965Z,20.45
2022-10-19T03:31:31.372Z,18.13
2022-10-19T03:33:57.733Z,16.48
2022-10-19T03:36:29.723Z,17.65
2022-10-19T03:38:58.753Z,21.45
2022-10-19T03:41:28.826Z,21.33
2022-10-19T03:43:56.359Z,19.65
2022-10-19T03:46:23.828Z,19.75
2022-10-19T03:48:50.453Z,16.83
2022-10-19T03:51:22.711Z,19.33
2022-10-19T03:53:56.227Z,20.90
2022-10-19T03:56:25.434Z,16.55
2022-10-19T03:58:53.302Z,25.27
2022-10-19T04:01:25.689Z,16.77
2022-10-19T04:04:04.433Z,16.92
2022-10-19T04:06:36.800Z,15.43
2022-10-19T04:09:05.032Z,16.58
2022-10-19T04:11:33.074Z,20.33
2022-10-19T04:13:59.802Z,18.00
2022-10-19T04:16:28.114Z,18.15
2022-10-19T04:18:54.871Z,18.15
2022-10-19T04:21:24.694Z,17.92
2022-10-19T04:23:53.054Z,19.23
2022-10-19T04:26:20.252Z,14.90
2022-10-19T04:28:46.703Z,17.05
2022-10-19T04:31:13.097Z,15.07
2022-10-19T04:33:40.685Z,17.00
2022-10-19T04:36:09.270Z,19.92
2022-10-19T04:38:36.526Z,16.13
2022-10-19T04:41:07.725Z,14.98
2022-10-19T04:43:34.343Z,12.10
2022-10-19T04:46:09.795Z,13.35
2022-10-19T04:48:37.595Z,15.85
2022-10-19T04:51:04.455Z,11.98
2022-10-19T04:53:31.515Z,13.20
2022-10-19T04:55:57.862Z,15.90
2022-10-19T04:58:24.462Z,17.02
2022-10-19T05:00:51.115Z,14.68
2022-10-19T05:03:18.130Z,15.30
2022-10-19T05:05:44.453Z,20.08
2022-10-19T05:08:11.188Z,13.48
2022-10-19T05:10:38.259Z,14.85
2022-10-19T05:13:05.216Z,12.57
2022-10-19T05:15:31.754Z,14.60
2022-10-19T05:17:58.270Z,12.85
2022-10-19T05:20:24.976Z,11.40
2022-10-19T05:22:51.785Z,12.63
2022-10-19T05:25:18.158Z,12.43
2022-10-19T05:27:44.454Z,11.38
2022-10-19T05:30:10.893Z,13.23
2022-10-19T05:32:37.211Z,14.90
2022-10-19T05:35:03.739Z,14.70
2022-10-19T05:37:30.077Z,14.98
2022-10-19T05:39:56.466Z,14.13
2022-10-19T05:42:22.807Z,14.93
2022-10-19T05:44:49.127Z,13.15
2022-10-19T05:47:15.461Z,15.25
2022-10-19T05:49:41.785Z,11.02
2022-10-19T05:52:08.130Z,16.67
2022-10-19T05:54:34.475Z,13.35
2022-10-19T05:57:00.801Z,13.57
2022-10-19T05:59:27.101Z,16.23
2022-10-19T06:01:53.527Z,21.02
2022-10-19T06:04:19.878Z,27.23
2022-10-19T06:06:46.181Z,19.10
2022-10-19T06:09:12.522Z,15.88
2022-10-19T06:11:41.335Z,14.30
2022-10-19T06:14:12.205Z,15.95
2022-10-19T06:16:38.699Z,20.67
2022-10-19T06:19:05.963Z,20.40
2022-10-19T06:21:34.208Z,16.25
2022-10-19T06:24:03.629Z,15.98
2022-10-19T06:26:31.949Z,16.17
2022-10-19T06:29:00.801Z,21.05
2022-10-19T06:31:34.238Z,15.88
2022-10-19T06:34:00.661Z,18.35
2022-10-19T06:36:29.791Z,15.35
2022-10-19T06:38:56.381Z,16.35
2022-10-19T06:41:23.473Z,18.52
2022-10-19T06:43:54.145Z,16.35
2022-10-19T06:46:22.160Z,16.98
2022-10-19T06:48:53.315Z,13.65
2022-10-19T06:51:19.878Z,15.38
2022-10-19T06:53:46.240Z,17.17
2022-10-19T06:56:12.602Z,17.45
2022-10-19T06:58:39.618Z,15.90
2022-10-19T07:01:08.190Z,15.32
2022-10-19T07:03:34.672Z,16.13
2022-10-19T07:06:03.775Z,14.98
2022-10-19T07:08:31.490Z,16.65
2022-10-19T07:11:01.090Z,17.63
2022-10-19T07:13:29.082Z,16.95
2022-10-19T07:16:07.654Z,15.73
2022-10-19T07:18:36.219Z,14.05
2022-10-19T07:21:08.703Z,17.13
2022-10-19T07:23:36.818Z,13.80
2022-10-19T07:26:15.698Z,14.98
2022-10-19T07:28:43.800Z,16.38
2022-10-19T07:31:12.936Z,15.15
2022-10-19T07:33:39.559Z,19.25
2022-10-19T07:36:08.503Z,14.35
2022-10-19T07:38:35.835Z,15.98
2022-10-19T07:41:06.396Z,16.13
2022-10-19T07:43:33.343Z,12.60
2022-10-19T07:46:05.433Z,17.33
2022-10-19T07:48:32.431Z,17.83
2022-10-19T07:51:04.194Z,14.57
2022-10-19T07:53:30.762Z,13.70
2022-10-19T07:56:03.644Z,12.68
2022-10-19T07:58:29.983Z,15.88
2022-10-19T08:01:19.755Z,16.92
2022-10-19T08:06:33.946Z,13.35
2022-10-19T08:09:00.374Z,13.90
2022-10-19T08:11:29.923Z,15.82
2022-10-19T08:13:56.758Z,16.15
2022-10-19T08:16:29.175Z,21.55
2022-10-19T08:19:00.696Z,21.58
2022-10-19T08:21:27.985Z,14.70
2022-10-19T08:23:54.327Z,16.83
2022-10-19T08:26:20.940Z,15.75
2022-10-19T08:28:47.834Z,17.80
2022-10-19T08:31:20.141Z,19.25
2022-10-19T08:33:46.703Z,16.45
2022-10-19T08:36:13.808Z,17.90
2022-10-19T08:38:41.098Z,16.30
2022-10-19T08:41:23.001Z,18.20
2022-10-19T08:43:55.415Z,22.75
2022-10-19T08:46:47.675Z,17.25
2022-10-19T08:49:19.595Z,16.63
2022-10-19T08:51:52.980Z,18.50
2022-10-19T08:54:19.342Z,14.75
2022-10-19T08:56:55.490Z,15.23
2022-10-19T08:59:41.103Z,19.67
2022-10-19T09:02:41.966Z,18.10
2022-10-19T09:05:50.173Z,19.42
2022-10-19T09:08:19.064Z,15.80
2022-10-19T09:10:50.310Z,14.48
2022-10-19T09:13:22.781Z,13.32
2022-10-19T09:15:51.041Z,15.68
2022-10-19T09:18:24.808Z,17.00
2022-10-19T09:21:00.104Z,12.95
2022-10-19T09:23:33.287Z,17.70
2022-10-19T09:25:59.628Z,15.52
2022-10-19T09:28:41.117Z,18.10
2022-10-19T09:31:31.734Z,9.55
2022-10-19T09:34:06.107Z,16.10
2022-10-19T09:36:55.291Z,12.27
2022-10-19T09:39:23.476Z,7.90
2022-10-19T09:41:57.765Z,7.32
2022-10-19T09:44:25.311Z,7.45
2022-10-19T09:47:15.512Z,6.32
2022-10-19T09:49:44.459Z,9.88
2022-10-19T09:52:32.667Z,5.53
2022-10-19T09:55:03.235Z,9.98
2022-10-19T09:57:31.151Z,7.53
2022-10-19T09:59:57.910Z,7.25
2022-10-19T10:02:34.126Z,12.18
2022-10-19T10:05:13.981Z,5.70
2022-10-19T10:07:40.589Z,8.77
2022-10-19T10:10:26.772Z,8.27
2022-10-19T10:12:58.408Z,6.28
2022-10-19T10:15:27.913Z,5.68
2022-10-19T10:17:56.757Z,7.13
2022-10-19T10:20:31.632Z,6.32
2022-10-19T10:25:30.171Z,6.68
2022-10-19T10:28:02.992Z,6.40
2022-10-19T10:30:34.939Z,9.13
2022-10-19T10:33:09.442Z,4.90
2022-10-19T10:35:50.265Z,8.05
2022-10-19T10:38:20.107Z,5.80
2022-10-19T10:41:10.922Z,7.10
2022-10-19T10:46:24.362Z,10.93
2022-10-19T10:48:57.670Z,7.75
2022-10-19T10:51:33.576Z,9.27
2022-10-19T10:54:24.306Z,5.57
2022-10-19T10:57:08.962Z,8.80
2022-10-19T10:59:57.594Z,6.43
2022-10-19T11:02:46.470Z,5.53
2022-10-19T11:05:33.353Z,5.05
2022-10-19T11:08:11.994Z,4.00
2022-10-19T11:10:49.460Z,4.15
2022-10-19T11:13:30.808Z,8.07
2022-10-19T11:16:11.835Z,8.02
2022-10-19T11:18:48.143Z,5.90
2022-10-19T11:21:20.492Z,8.52
2022-10-19T11:23:59.003Z,8.27
2022-10-19T11:27:02.456Z,6.68
2022-10-19T11:29:43.868Z,9.02
2022-10-19T11:32:41.265Z,7.45
2022-10-19T11:35:44.786Z,8.63
2022-10-19T11:38:27.407Z,5.05
2022-10-19T11:41:25.202Z,7.72
2022-10-19T11:44:07.650Z,7.25
2022-10-19T11:46:58.873Z,5.70
2022-10-19T11:49:32.832Z,13.70
2022-10-19T11:52:17.867Z,6.57
2022-10-19T11:55:05.948Z,10.43
2022-10-19T11:57:51.462Z,7.47
2022-10-19T12:00:38.103Z,4.75
2022-10-19T12:03:46.034Z,12.60
2022-10-19T12:06:30.619Z,7.85
2022-10-19T12:09:13.573Z,4.18
2022-10-19T12:12:10.988Z,4.65
2022-10-19T12:14:41.338Z,4.30
2022-10-19T12:19:52.892Z,6.18
2022-10-19T12:22:23.884Z,10.02
2022-10-19T12:24:52.583Z,7.03
2022-10-19T12:27:27.830Z,5.38
2022-10-19T12:29:56.096Z,7.63
2022-10-19T12:32:24.629Z,7.40
2022-10-19T12:35:00.511Z,4.93
2022-10-19T12:37:32.816Z,6.35
2022-10-19T12:40:23.789Z,8.73
2022-10-19T12:42:54.043Z,6.45
2022-10-19T12:45:29.195Z,8.35
2022-10-19T12:48:22.851Z,10.60
2022-10-19T12:50:49.117Z,8.65
2022-10-19T12:53:37.138Z,9.27
2022-10-19T12:56:17.511Z,6.20
2022-10-19T12:58:47.736Z,6.47
2022-10-19T13:01:35.794Z,7.30
2022-10-19T13:04:37.603Z,8.80
2022-10-19T13:07:07.420Z,9.00
2022-10-19T13:09:45.604Z,6.35
2022-10-19T13:12:17.753Z,8.20
2022-10-19T13:14:56.236Z,8.30
2022-10-19T13:17:34.914Z,7.87
2022-10-19T13:20:13.520Z,9.07
2022-10-19T13:22:40.635Z,11.25
2022-10-19T13:25:16.039Z,8.05
2022-10-19T13:27:43.846Z,7.43
2022-10-19T13:30:35.208Z,6.28
2022-10-19T13:33:23.378Z,8.55
2022-10-19T13:36:06.288Z,9.30
2022-10-19T13:38:48.105Z,8.32
2022-10-19T13:41:18.476Z,7.75
2022-10-19T13:43:59.753Z,7.32
2022-10-19T13:47:04.873Z,5.75
2022-10-19T13:49:49.762Z,9.43
2022-10-19T13:52:46.834Z,8.57
2022-10-19T13:55:45.213Z,6.20
2022-10-19T13:58:45.495Z,10.32
2022-10-19T14:01:20.309Z,7.30
2022-10-19T14:06:28.359Z,8.73
2022-10-19T14:09:19.787Z,6.18
2022-10-19T14:11:50.218Z,5.18
2022-10-19T14:14:27.905Z,10.75
2022-10-19T14:16:58.359Z,6.28
2022-10-19T14:19:43.342Z,7.82
2022-10-19T14:22:29.182Z,12.30
2022-10-19T14:25:23.224Z,6.60
2022-10-19T14:28:00.844Z,4.40
2022-10-19T14:30:31.545Z,5.50
2022-10-19T14:33:02.192Z,6.85
2022-10-19T14:35:33.301Z,10.63
2022-10-19T14:38:00.346Z,6.03
2022-10-19T14:40:27.999Z,6.28
2022-10-19T14:42:55.951Z,7.95
2022-10-19T14:45:25.659Z,5.20
2022-10-19T14:47:55.161Z,6.30
2022-10-19T14:50:25.440Z,7.65
2022-10-19T14:52:58.315Z,5.82
2022-10-19T14:55:31.514Z,6.43
2022-10-19T14:57:58.426Z,6.50
2022-10-19T15:03:06.506Z,6.63
2022-10-19T15:05:35.755Z,7.00
2022-10-19T15:08:39.552Z,10.27
2022-10-19T15:11:07.454Z,14.45
2022-10-19T15:13:40.150Z,7.97
2022-10-19T15:16:26.582Z,6.20
2022-10-19T15:18:52.962Z,10.43
2022-10-19T15:21:20.552Z,8.15
2022-10-19T15:23:50.010Z,5.70
2022-10-19T15:26:29.028Z,8.98
2022-10-19T15:29:07.807Z,8.20
2022-10-19T15:31:34.533Z,7.78
2022-10-19T15:34:02.625Z,10.32
2022-10-19T15:36:30.959Z,8.32
2022-10-19T15:39:17.612Z,4.07
2022-10-19T15:41:49.699Z,5.43
2022-10-19T15:44:32.254Z,7.00
2022-10-19T15:47:10.312Z,5.57
2022-10-19T15:49:42.639Z,8.60
2022-10-19T15:52:15.686Z,5.60
2022-10-19T15:54:42.079Z,6.18
2022-10-19T15:57:33.706Z,7.72
2022-10-19T16:00:07.526Z,7.30
2022-10-19T16:02:33.862Z,9.70
2022-10-19T16:07:37.909Z,7.43
2022-10-19T16:10:05.526Z,10.40
2022-10-19T16:12:31.890Z,6.88
2022-10-19T16:14:58.236Z,5.95
2022-10-19T16:17:24.615Z,9.13
2022-10-19T16:19:51.202Z,10.98
2022-10-19T16:22:17.540Z,6.78
2022-10-19T16:24:43.872Z,8.57
2022-10-19T16:27:10.423Z,10.38
2022-10-19T16:29:36.735Z,5.47
2022-10-19T16:32:03.047Z,5.93
2022-10-19T16:34:29.475Z,6.90
2022-10-19T16:36:55.797Z,8.50
2022-10-19T16:39:22.107Z,12.07
2022-10-19T16:41:48.398Z,10.93
2022-10-19T16:44:14.788Z,7.80
2022-10-19T16:46:41.175Z,12.40
2022-10-19T16:49:07.496Z,9.98
2022-10-19T16:51:36.447Z,8.52
2022-10-19T16:54:05.347Z,6.50
2022-10-19T16:56:32.590Z,10.63
2022-10-19T16:59:04.997Z,12.95
2022-10-19T17:01:33.028Z,9.13
2022-10-19T17:03:59.631Z,13.07
2022-10-19T17:06:27.541Z,14.07
2022-10-19T17:11:43.771Z,11.18
2022-10-19T17:14:12.326Z,12.55
2022-10-19T17:16:39.262Z,15.20
2022-10-19T17:19:07.454Z,11.02
2022-10-19T17:21:36.665Z,13.95
2022-10-19T17:24:03.589Z,12.38
2022-10-19T17:26:32.589Z,14.25
2022-10-19T17:28:59.867Z,12.27
2022-10-19T17:31:27.727Z,15.43
2022-10-19T17:33:54.786Z,10.65
2022-10-19T17:36:23.935Z,15.98
2022-10-19T17:38:51.791Z,14.32
2022-10-19T17:41:19.432Z,19.05
2022-10-19T17:43:47.130Z,15.57
2022-10-19T17:46:16.717Z,13.35
2022-10-19T17:48:44.511Z,12.38
2022-10-19T17:51:13.612Z,17.70
2022-10-19T17:53:39.962Z,14.38
2022-10-19T17:56:07.340Z,21.27
2022-10-19T17:58:37.694Z,22.85
2022-10-19T18:01:06.975Z,16.40
2022-10-19T18:03:35.010Z,14.60
2022-10-19T18:06:06.924Z,27.30
2022-10-19T18:08:41.990Z,26.45
2022-10-19T18:11:10.668Z,24.80
2022-10-19T18:16:14.944Z,17.63
2022-10-19T18:18:42.915Z,17.02
2022-10-19T18:21:13.062Z,17.27
2022-10-19T18:23:40.124Z,16.30
2022-10-19T18:26:12.026Z,15.40
2022-10-19T18:28:38.667Z,14.10
2022-10-19T18:31:10.213Z,15.23
2022-10-19T18:33:37.797Z,17.63
2022-10-19T18:36:05.956Z,16.15
2022-10-19T18:38:32.382Z,10.82
2022-10-19T18:41:02.699Z,13.07
2022-10-19T18:43:29.007Z,11.30
2022-10-19T18:45:57.339Z,16.00
2022-10-19T18:48:24.919Z,15.60
2022-10-19T18:50:51.272Z,11.98
2022-10-19T18:53:17.871Z,14.75
2022-10-19T18:55:44.803Z,14.48
2022-10-19T18:58:12.062Z,15.45
2022-10-19T19:00:40.886Z,12.60
2022-10-19T19:03:09.755Z,17.33
2022-10-19T19:05:36.077Z,15.10
2022-10-19T19:08:02.420Z,13.80
2022-10-19T19:10:28.738Z,15.35
2022-10-19T19:12:55.048Z,17.10
2022-10-19T19:15:21.444Z,11.40
2022-10-19T19:17:47.744Z,11.05
2022-10-19T19:20:14.070Z,6.97
2022-10-19T19:22:40.402Z,9.43
2022-10-19T19:25:07.032Z,10.30
2022-10-19T19:27:33.477Z,13.90
2022-10-19T19:29:59.887Z,14.52
2022-10-19T19:32:26.350Z,10.45
2022-10-19T19:34:54.899Z,7.47
2022-10-19T19:37:21.438Z,5.95
2022-10-19T19:39:47.766Z,7.65
2022-10-19T19:42:14.120Z,7.15
2022-10-19T19:44:40.443Z,7.70
2022-10-19T19:47:06.789Z,4.10
2022-10-19T19:49:33.074Z,11.50
2022-10-19T19:51:59.398Z,9.68
2022-10-19T19:54:25.813Z,6.45
2022-10-19T19:56:53.806Z,10.63
2022-10-19T19:59:20.703Z,5.25
2022-10-19T20:01:47.117Z,4.50
2022-10-19T20:04:13.495Z,7.60
2022-10-19T20:06:40.526Z,5.75
2022-10-19T20:09:08.084Z,7.10
2022-10-19T20:11:36.205Z,7.03
2022-10-19T20:14:06.103Z,6.22
2022-10-19T20:16:32.480Z,6.50
2022-10-19T20:19:07.660Z,4.57
2022-10-19T20:21:34.097Z,8.95
2022-10-19T20:24:01.019Z,8.70
2022-10-19T20:26:28.218Z,8.50
2022-10-19T20:28:54.745Z,5.10
2022-10-19T20:31:22.153Z,5.03
2022-10-19T20:33:48.892Z,7.78
2022-10-19T20:36:17.998Z,5.93
2022-10-19T20:38:51.702Z,5.57
2022-10-19T20:41:19.273Z,9.40
2022-10-19T20:43:45.834Z,5.68
2022-10-19T20:46:18.263Z,12.18
2022-10-19T20:48:45.402Z,5.40
2022-10-19T20:51:23.013Z,8.70
2022-10-19T20:53:51.446Z,5.50
2022-10-19T20:56:20.443Z,6.95
2022-10-19T20:58:46.964Z,4.95
2022-10-19T21:01:18.450Z,5.75
2022-10-19T21:03:49.950Z,7.65
2022-10-19T21:06:16.371Z,5.55
2022-10-19T21:08:42.968Z,7.13
2022-10-19T21:11:23.388Z,5.93
2022-10-19T21:13:54.201Z,8.95
2022-10-19T21:16:22.371Z,8.93
2022-10-19T21:18:49.932Z,7.82
2022-10-19T21:21:36.954Z,7.82
2022-10-19T21:24:16.053Z,6.22
2022-10-19T21:26:42.609Z,8.73
2022-10-19T21:29:10.954Z,6.50
2022-10-19T21:31:39.402Z,7.15
2022-10-19T21:34:07.823Z,8.23
2022-10-19T21:36:34.195Z,6.97
2022-10-19T21:39:00.721Z,9.55
2022-10-19T21:41:27.146Z,7.75
2022-10-19T21:43:54.245Z,7.25
2022-10-19T21:46:22.443Z,7.72
2022-10-19T21:48:49.318Z,7.00
2022-10-19T21:51:33.281Z,8.23
2022-10-19T21:54:00.043Z,9.07
2022-10-19T21:56:26.377Z,7.68
2022-10-19T21:58:53.756Z,9.38
2022-10-19T22:01:22.625Z,8.90
2022-10-19T22:03:49.107Z,8.95
2022-10-19T22:06:15.850Z,9.65
2022-10-19T22:08:46.694Z,10.65
2022-10-19T22:11:14.068Z,10.55
2022-10-19T22:13:40.503Z,9.43
2022-10-19T22:16:15.632Z,9.10
2022-10-19T22:18:42.710Z,8.23
2022-10-19T22:21:11.777Z,7.70
2022-10-19T22:23:38.495Z,9.02
2022-10-19T22:26:20.084Z,7.18
2022-10-19T22:28:46.514Z,8.32
2022-10-19T22:31:13.406Z,6.93
2022-10-19T22:33:39.818Z,6.80
2022-10-19T22:36:08.086Z,8.98
2022-10-19T22:38:35.290Z,10.13
2022-10-19T22:41:01.652Z,12.02
2022-10-19T22:43:27.999Z,11.02
2022-10-19T22:45:54.360Z,10.15
2022-10-19T22:48:20.726Z,5.90
2022-10-19T22:50:47.037Z,9.63
2022-10-19T22:53:13.700Z,7.72
2022-10-19T22:55:40.623Z,7.97
2022-10-19T22:58:07.911Z,7.20
2022-10-19T23:00:34.328Z,8.98
2022-10-19T23:03:00.605Z,12.23
2022-10-19T23:05:26.923Z,7.80
2022-10-19T23:07:53.210Z,10.52
2022-10-19T23:10:19.543Z,9.15
2022-10-19T23:12:53.019Z,12.77
2022-10-19T23:15:20.868Z,9.60
2022-10-19T23:17:47.424Z,8.40
2022-10-19T23:20:14.205Z,10.43
2022-10-19T23:22:40.537Z,8.98
2022-10-19T23:25:07.610Z,8.13
2022-10-19T23:27:34.345Z,10.65
2022-10-19T23:30:01.343Z,12.23
2022-10-19T23:32:27.656Z,11.15
2022-10-19T23:34:53.962Z,9.98
2022-10-19T23:37:20.271Z,11.02
2022-10-19T23:39:46.595Z,9.65
2022-10-19T23:42:12.912Z,9.68
2022-10-19T23:44:39.222Z,15.80
2022-10-19T23:47:05.542Z,12.30
2022-10-19T23:49:31.846Z,14.70
2022-10-19T23:51:58.235Z,9.85
2022-10-19T23:54:24.667Z,13.07
2022-10-19T23:56:50.971Z,13.20
2022-10-19T23:59:17.686Z,16.67
